WMT732 LHBP-LIRF
Flight info
| Callsign | WMT732 |
|---|---|
| Flight time | 1h 26m |
| Altitude | 38000 |
| Route | DUZLA DCT VEBAL DCT NIVES DCT IBENI DCT ERDON DCT GOTMO DCT RITEB |
| Aircraft | A321/M-SDE1E2E3FGIJ1J4RWXY/LB1 |
Departure
| Time | 2026-05-05 18:56 |
|---|---|
| Airport | Budapest Liszt Ferenc International Airport (LHBP) |
Arrival
| Time | 2026-05-05 20:23 |
|---|---|
| Airport | Rome–Fiumicino Leonardo da Vinci International Airport (LIRF) |
| Time | Latitude | Longitude | Altitude | Speed | Heading |
|---|---|---|---|---|---|
| 2026-05-05 18:37 | 47.43543 | 19.26017 | 457 ft | 0 kts | 312° |
| 2026-05-05 18:51 | 47.43547 | 19.26011 | 457 ft | 2 kts | 312° |
| 2026-05-05 18:51 | 47.43563 | 19.25986 | 457 ft | 6 kts | 315° |
| 2026-05-05 18:52 | 47.43620 | 19.26001 | 455 ft | 13 kts | 40° |
| 2026-05-05 18:52 | 47.43700 | 19.26026 | 457 ft | 13 kts | 320° |
| 2026-05-05 18:52 | 47.43780 | 19.25974 | 457 ft | 14 kts | 25° |
| 2026-05-05 18:52 | 47.43853 | 19.26071 | 458 ft | 15 kts | 42° |
| 2026-05-05 18:53 | 47.43932 | 19.26177 | 458 ft | 16 kts | 42° |
| 2026-05-05 18:53 | 47.43987 | 19.26251 | 459 ft | 7 kts | 42° |
| 2026-05-05 18:53 | 47.43993 | 19.26259 | 459 ft | 0 kts | 42° |
| 2026-05-05 18:54 | 47.44000 | 19.26268 | 458 ft | 3 kts | 42° |
| 2026-05-05 18:54 | 47.44029 | 19.26308 | 462 ft | 8 kts | 44° |
| 2026-05-05 18:54 | 47.44062 | 19.26388 | 468 ft | 10 kts | 70° |
| 2026-05-05 18:55 | 47.44070 | 19.26497 | 471 ft | 11 kts | 95° |
| 2026-05-05 18:55 | 47.44023 | 19.26598 | 468 ft | 14 kts | 133° |
| 2026-05-05 18:55 | 47.43827 | 19.26912 | 473 ft | 79 kts | 133° |
| 2026-05-05 18:55 | 47.43294 | 19.27773 | 465 ft | 145 kts | 132° |
| 2026-05-05 18:56 | 47.42511 | 19.29028 | 691 ft | 174 kts | 134° |
| 2026-05-05 18:56 | 47.41747 | 19.30408 | 1328 ft | 175 kts | 127° |
| 2026-05-05 18:56 | 47.41125 | 19.31988 | 1950 ft | 185 kts | 124° |
| 2026-05-05 18:56 | 47.40483 | 19.33735 | 2347 ft | 207 kts | 122° |
| 2026-05-05 18:57 | 47.39762 | 19.35705 | 2683 ft | 229 kts | 122° |
| 2026-05-05 18:57 | 47.38957 | 19.37883 | 3080 ft | 252 kts | 122° |
| 2026-05-05 18:57 | 47.37949 | 19.40032 | 3741 ft | 261 kts | 143° |
| 2026-05-05 18:57 | 47.36320 | 19.41088 | 4406 ft | 258 kts | 179° |
| 2026-05-05 18:58 | 47.34609 | 19.40512 | 5220 ft | 256 kts | 212° |
| 2026-05-05 18:58 | 47.33403 | 19.38582 | 6041 ft | 262 kts | 238° |
| 2026-05-05 18:58 | 47.32621 | 19.36135 | 6852 ft | 266 kts | 245° |
| 2026-05-05 18:58 | 47.31930 | 19.33601 | 7687 ft | 267 kts | 245° |
| 2026-05-05 18:59 | 47.31239 | 19.31057 | 8558 ft | 268 kts | 245° |
| 2026-05-05 18:59 | 47.30543 | 19.28508 | 9428 ft | 268 kts | 243° |
| 2026-05-05 18:59 | 47.29696 | 19.26066 | 10219 ft | 269 kts | 237° |
| 2026-05-05 18:59 | 47.28675 | 19.23625 | 10497 ft | 291 kts | 234° |
| 2026-05-05 19:00 | 47.27519 | 19.21046 | 10749 ft | 311 kts | 234° |
| 2026-05-05 19:00 | 47.26303 | 19.18358 | 11311 ft | 319 kts | 234° |
| 2026-05-05 19:00 | 47.25074 | 19.15609 | 11973 ft | 324 kts | 234° |
| 2026-05-05 19:00 | 47.23857 | 19.12841 | 12639 ft | 329 kts | 235° |
| 2026-05-05 19:01 | 47.22617 | 19.09983 | 13313 ft | 334 kts | 235° |
| 2026-05-05 19:01 | 47.21365 | 19.07075 | 13948 ft | 339 kts | 236° |
| 2026-05-05 19:01 | 47.20101 | 19.04127 | 14552 ft | 343 kts | 236° |
| 2026-05-05 19:01 | 47.18664 | 19.01324 | 15149 ft | 346 kts | 226° |
| 2026-05-05 19:02 | 47.16878 | 18.98935 | 15766 ft | 349 kts | 219° |
| 2026-05-05 19:02 | 47.15006 | 18.96635 | 16373 ft | 353 kts | 219° |
| 2026-05-05 19:02 | 47.13107 | 18.94313 | 16988 ft | 357 kts | 219° |
| 2026-05-05 19:02 | 47.11185 | 18.91963 | 17587 ft | 362 kts | 220° |
| 2026-05-05 19:03 | 47.09241 | 18.89583 | 18179 ft | 366 kts | 220° |
| 2026-05-05 19:03 | 47.07275 | 18.87173 | 18700 ft | 370 kts | 220° |
| 2026-05-05 19:03 | 47.05288 | 18.84741 | 19237 ft | 374 kts | 220° |
| 2026-05-05 19:03 | 47.03285 | 18.82291 | 19785 ft | 377 kts | 220° |
| 2026-05-05 19:04 | 47.01264 | 18.79825 | 20343 ft | 380 kts | 220° |
| 2026-05-05 19:04 | 46.99226 | 18.77341 | 20908 ft | 383 kts | 220° |
| 2026-05-05 19:04 | 46.97172 | 18.74835 | 21467 ft | 386 kts | 220° |
| 2026-05-05 19:04 | 46.95159 | 18.72228 | 22053 ft | 387 kts | 226° |
| 2026-05-05 19:05 | 46.93289 | 18.69378 | 22610 ft | 390 kts | 227° |
| 2026-05-05 19:05 | 46.91406 | 18.66506 | 23137 ft | 393 kts | 227° |
| 2026-05-05 19:05 | 46.89508 | 18.63616 | 23616 ft | 395 kts | 226° |
| 2026-05-05 19:05 | 46.87597 | 18.60708 | 24076 ft | 397 kts | 226° |
| 2026-05-05 19:06 | 46.85677 | 18.57792 | 24521 ft | 399 kts | 226° |
| 2026-05-05 19:06 | 46.83770 | 18.54903 | 24935 ft | 401 kts | 226° |
| 2026-05-05 19:06 | 46.81800 | 18.51922 | 25368 ft | 404 kts | 226° |
| 2026-05-05 19:06 | 46.79872 | 18.49005 | 25780 ft | 406 kts | 227° |
| 2026-05-05 19:07 | 46.77907 | 18.46034 | 26191 ft | 408 kts | 227° |
| 2026-05-05 19:07 | 46.76571 | 18.44017 | 26467 ft | 410 kts | 227° |
| 2026-05-05 19:07 | 46.73938 | 18.40047 | 26994 ft | 413 kts | 227° |
| 2026-05-05 19:07 | 46.71936 | 18.37031 | 27383 ft | 415 kts | 226° |
| 2026-05-05 19:08 | 46.69923 | 18.34001 | 27793 ft | 417 kts | 226° |
| 2026-05-05 19:08 | 46.67901 | 18.30957 | 28182 ft | 419 kts | 226° |
| 2026-05-05 19:08 | 46.65866 | 18.27900 | 28568 ft | 422 kts | 226° |
| 2026-05-05 19:08 | 46.63816 | 18.24831 | 28942 ft | 424 kts | 226° |
| 2026-05-05 19:09 | 46.61752 | 18.21747 | 29318 ft | 426 kts | 226° |
| 2026-05-05 19:09 | 46.59680 | 18.18651 | 29673 ft | 428 kts | 226° |
| 2026-05-05 19:09 | 46.57595 | 18.15540 | 30035 ft | 431 kts | 226° |
| 2026-05-05 19:09 | 46.55501 | 18.12412 | 30335 ft | 433 kts | 226° |
| 2026-05-05 19:10 | 46.53393 | 18.09267 | 30627 ft | 436 kts | 226° |
| 2026-05-05 19:10 | 46.51272 | 18.06109 | 30927 ft | 438 kts | 226° |
| 2026-05-05 19:10 | 46.49137 | 18.02938 | 31232 ft | 440 kts | 226° |
| 2026-05-05 19:10 | 46.47721 | 18.00838 | 31498 ft | 440 kts | 226° |
| 2026-05-05 19:11 | 46.45586 | 17.97670 | 31931 ft | 439 kts | 226° |
| 2026-05-05 19:11 | 46.43454 | 17.94515 | 32349 ft | 438 kts | 226° |
| 2026-05-05 19:11 | 46.41322 | 17.91365 | 32751 ft | 437 kts | 227° |
| 2026-05-05 19:11 | 46.39191 | 17.88216 | 33147 ft | 437 kts | 227° |
| 2026-05-05 19:12 | 46.37067 | 17.85078 | 33552 ft | 436 kts | 227° |
| 2026-05-05 19:12 | 46.34944 | 17.81948 | 33963 ft | 435 kts | 227° |
| 2026-05-05 19:12 | 46.32827 | 17.78829 | 34310 ft | 434 kts | 227° |
| 2026-05-05 19:12 | 46.30713 | 17.75713 | 34654 ft | 433 kts | 227° |
| 2026-05-05 19:13 | 46.28602 | 17.72601 | 34974 ft | 433 kts | 227° |
| 2026-05-05 19:13 | 46.26492 | 17.69499 | 35311 ft | 432 kts | 227° |
| 2026-05-05 19:13 | 46.24385 | 17.66404 | 35644 ft | 432 kts | 227° |
| 2026-05-05 19:13 | 46.22277 | 17.63317 | 35973 ft | 431 kts | 227° |
| 2026-05-05 19:14 | 46.20169 | 17.60241 | 36318 ft | 430 kts | 227° |
| 2026-05-05 19:14 | 46.18094 | 17.57218 | 36645 ft | 429 kts | 227° |
| 2026-05-05 19:14 | 46.15997 | 17.54158 | 36947 ft | 429 kts | 227° |
| 2026-05-05 19:14 | 46.13903 | 17.51103 | 37221 ft | 428 kts | 227° |
| 2026-05-05 19:15 | 46.11811 | 17.48053 | 37497 ft | 428 kts | 227° |
| 2026-05-05 19:15 | 46.09718 | 17.45003 | 37772 ft | 428 kts | 227° |
| 2026-05-05 19:15 | 46.07625 | 17.41959 | 37939 ft | 428 kts | 227° |
| 2026-05-05 19:15 | 46.05526 | 17.38917 | 37961 ft | 428 kts | 227° |
| 2026-05-05 19:16 | 46.01340 | 17.32871 | 37973 ft | 424 kts | 228° |
| 2026-05-05 19:16 | 45.97444 | 17.26553 | 37977 ft | 421 kts | 235° |
| 2026-05-05 19:17 | 45.93872 | 17.19901 | 37970 ft | 420 kts | 234° |
| 2026-05-05 19:17 | 45.90291 | 17.13285 | 37976 ft | 419 kts | 234° |
| 2026-05-05 19:18 | 45.86699 | 17.06681 | 37975 ft | 420 kts | 234° |
| 2026-05-05 19:18 | 45.83126 | 17.00126 | 38002 ft | 420 kts | 234° |
| 2026-05-05 19:19 | 45.79503 | 16.93486 | 38001 ft | 420 kts | 234° |
| 2026-05-05 19:19 | 45.75930 | 16.86945 | 37993 ft | 420 kts | 234° |
| 2026-05-05 19:20 | 45.72328 | 16.80365 | 38004 ft | 420 kts | 234° |
| 2026-05-05 19:20 | 45.68715 | 16.73794 | 37998 ft | 420 kts | 234° |
| 2026-05-05 19:21 | 45.65101 | 16.67224 | 37997 ft | 421 kts | 234° |
| 2026-05-05 19:21 | 45.61477 | 16.60659 | 37999 ft | 421 kts | 233° |
| 2026-05-05 19:22 | 45.57849 | 16.54091 | 38007 ft | 421 kts | 233° |
| 2026-05-05 19:22 | 45.54213 | 16.47530 | 38006 ft | 422 kts | 233° |
| 2026-05-05 19:23 | 45.50570 | 16.40973 | 38006 ft | 422 kts | 233° |
| 2026-05-05 19:23 | 45.46923 | 16.34425 | 38007 ft | 422 kts | 233° |
| 2026-05-05 19:24 | 45.43297 | 16.27929 | 38008 ft | 422 kts | 233° |
| 2026-05-05 19:24 | 45.39641 | 16.21393 | 38008 ft | 422 kts | 233° |
| 2026-05-05 19:25 | 45.35990 | 16.14870 | 38019 ft | 421 kts | 233° |
| 2026-05-05 19:25 | 45.32334 | 16.08377 | 38018 ft | 420 kts | 233° |
| 2026-05-05 19:26 | 45.28682 | 16.01902 | 38032 ft | 420 kts | 233° |
| 2026-05-05 19:26 | 45.25041 | 15.95447 | 38028 ft | 418 kts | 233° |
| 2026-05-05 19:27 | 45.21395 | 15.89028 | 38008 ft | 418 kts | 232° |
| 2026-05-05 19:27 | 45.17680 | 15.82695 | 38013 ft | 418 kts | 232° |
| 2026-05-05 19:28 | 45.13926 | 15.76398 | 38020 ft | 418 kts | 232° |
| 2026-05-05 19:28 | 45.10181 | 15.70099 | 38022 ft | 418 kts | 232° |
| 2026-05-05 19:29 | 45.06447 | 15.63790 | 38006 ft | 418 kts | 232° |
| 2026-05-05 19:29 | 45.02701 | 15.57473 | 38004 ft | 420 kts | 232° |
| 2026-05-05 19:30 | 44.98966 | 15.51192 | 38019 ft | 421 kts | 232° |
| 2026-05-05 19:30 | 44.95187 | 15.44874 | 38036 ft | 421 kts | 232° |
| 2026-05-05 19:31 | 44.91408 | 15.38564 | 38046 ft | 418 kts | 233° |
| 2026-05-05 19:31 | 44.87721 | 15.32416 | 38037 ft | 407 kts | 233° |
| 2026-05-05 19:32 | 44.84063 | 15.26335 | 38035 ft | 406 kts | 233° |
| 2026-05-05 19:32 | 44.80412 | 15.20265 | 38037 ft | 406 kts | 233° |
| 2026-05-05 19:33 | 44.76752 | 15.14198 | 38035 ft | 406 kts | 233° |
| 2026-05-05 19:33 | 44.73085 | 15.08144 | 38031 ft | 407 kts | 233° |
| 2026-05-05 19:34 | 44.69406 | 15.02071 | 38041 ft | 408 kts | 233° |
| 2026-05-05 19:35 | 44.63866 | 14.92942 | 38048 ft | 410 kts | 233° |
| 2026-05-05 19:35 | 44.60155 | 14.86867 | 38033 ft | 410 kts | 233° |
| 2026-05-05 19:36 | 44.56447 | 14.80792 | 38039 ft | 410 kts | 233° |
| 2026-05-05 19:36 | 44.52733 | 14.74714 | 38046 ft | 411 kts | 233° |
| 2026-05-05 19:37 | 44.49010 | 14.68644 | 38046 ft | 411 kts | 233° |
| 2026-05-05 19:37 | 44.45302 | 14.62617 | 38051 ft | 411 kts | 233° |
| 2026-05-05 19:38 | 44.41566 | 14.56553 | 38037 ft | 412 kts | 233° |
| 2026-05-05 19:38 | 44.37821 | 14.50486 | 38040 ft | 412 kts | 233° |
| 2026-05-05 19:39 | 44.34068 | 14.44424 | 38049 ft | 412 kts | 233° |
| 2026-05-05 19:39 | 44.30311 | 14.38364 | 38047 ft | 413 kts | 233° |
| 2026-05-05 19:40 | 44.26554 | 14.32315 | 38036 ft | 412 kts | 233° |
| 2026-05-05 19:40 | 44.22795 | 14.26276 | 38040 ft | 412 kts | 233° |
| 2026-05-05 19:41 | 44.19038 | 14.20240 | 38043 ft | 412 kts | 233° |
| 2026-05-05 19:41 | 44.15278 | 14.14216 | 38041 ft | 412 kts | 233° |
| 2026-05-05 19:42 | 44.11512 | 14.08204 | 38031 ft | 412 kts | 233° |
| 2026-05-05 19:42 | 44.07740 | 14.02202 | 38034 ft | 412 kts | 233° |
| 2026-05-05 19:43 | 44.03989 | 13.96256 | 38037 ft | 412 kts | 233° |
| 2026-05-05 19:43 | 44.00024 | 13.90418 | 38032 ft | 415 kts | 226° |
| 2026-05-05 19:44 | 43.95755 | 13.85090 | 38045 ft | 415 kts | 226° |
| 2026-05-05 19:44 | 43.91454 | 13.79735 | 38039 ft | 415 kts | 226° |
| 2026-05-05 19:45 | 43.87153 | 13.74385 | 38032 ft | 415 kts | 226° |
| 2026-05-05 19:45 | 43.82854 | 13.69040 | 38037 ft | 415 kts | 226° |
| 2026-05-05 19:46 | 43.78550 | 13.63702 | 38037 ft | 415 kts | 226° |
| 2026-05-05 19:46 | 43.74247 | 13.58383 | 38047 ft | 414 kts | 226° |
| 2026-05-05 19:47 | 43.69950 | 13.53082 | 38048 ft | 414 kts | 226° |
| 2026-05-05 19:47 | 43.65661 | 13.47789 | 38069 ft | 413 kts | 226° |
| 2026-05-05 19:48 | 43.61375 | 13.42523 | 38048 ft | 412 kts | 226° |
| 2026-05-05 19:48 | 43.57101 | 13.37282 | 38037 ft | 410 kts | 226° |
| 2026-05-05 19:49 | 43.52868 | 13.32103 | 38035 ft | 409 kts | 226° |
| 2026-05-05 19:49 | 43.48613 | 13.26906 | 38037 ft | 409 kts | 226° |
| 2026-05-05 19:50 | 43.44365 | 13.21710 | 38016 ft | 408 kts | 226° |
| 2026-05-05 19:50 | 43.40125 | 13.16553 | 37430 ft | 405 kts | 226° |
| 2026-05-05 19:50 | 43.38011 | 13.13992 | 36874 ft | 405 kts | 226° |
| 2026-05-05 19:51 | 43.35903 | 13.11432 | 36357 ft | 404 kts | 226° |
| 2026-05-05 19:51 | 43.33801 | 13.08881 | 35819 ft | 403 kts | 226° |
| 2026-05-05 19:51 | 43.31704 | 13.06343 | 35265 ft | 402 kts | 226° |
| 2026-05-05 19:51 | 43.29618 | 13.03799 | 34748 ft | 399 kts | 229° |
| 2026-05-05 19:52 | 43.27736 | 13.01054 | 34361 ft | 392 kts | 231° |
| 2026-05-05 19:52 | 43.25900 | 12.98314 | 33968 ft | 387 kts | 231° |
| 2026-05-05 19:52 | 43.24081 | 12.95616 | 33505 ft | 384 kts | 231° |
| 2026-05-05 19:52 | 43.22273 | 12.92943 | 32999 ft | 381 kts | 231° |
| 2026-05-05 19:53 | 43.20475 | 12.90284 | 32508 ft | 379 kts | 230° |
| 2026-05-05 19:53 | 43.18690 | 12.87642 | 31971 ft | 377 kts | 231° |
| 2026-05-05 19:53 | 43.16916 | 12.85017 | 31451 ft | 374 kts | 231° |
| 2026-05-05 19:53 | 43.15148 | 12.82403 | 30936 ft | 373 kts | 231° |
| 2026-05-05 19:54 | 43.13388 | 12.79803 | 30431 ft | 371 kts | 231° |
| 2026-05-05 19:54 | 43.11636 | 12.77218 | 29902 ft | 370 kts | 231° |
| 2026-05-05 19:54 | 43.09888 | 12.74650 | 29371 ft | 367 kts | 230° |
| 2026-05-05 19:54 | 43.08154 | 12.72109 | 28848 ft | 364 kts | 230° |
| 2026-05-05 19:55 | 43.06431 | 12.69580 | 28298 ft | 363 kts | 230° |
| 2026-05-05 19:55 | 43.04715 | 12.67057 | 27701 ft | 362 kts | 230° |
| 2026-05-05 19:55 | 43.03002 | 12.64547 | 27241 ft | 360 kts | 229° |
| 2026-05-05 19:55 | 43.01293 | 12.62048 | 26770 ft | 359 kts | 229° |
| 2026-05-05 19:56 | 42.99592 | 12.59560 | 26306 ft | 358 kts | 229° |
| 2026-05-05 19:56 | 42.97896 | 12.57078 | 26057 ft | 358 kts | 229° |
| 2026-05-05 19:56 | 42.96200 | 12.54593 | 26050 ft | 359 kts | 229° |
| 2026-05-05 19:56 | 42.94497 | 12.52095 | 26054 ft | 360 kts | 229° |
| 2026-05-05 19:57 | 42.92788 | 12.49595 | 26054 ft | 360 kts | 229° |
| 2026-05-05 19:57 | 42.91657 | 12.47943 | 26052 ft | 360 kts | 229° |
| 2026-05-05 19:57 | 42.89365 | 12.44604 | 26054 ft | 360 kts | 228° |
| 2026-05-05 19:57 | 42.87649 | 12.42111 | 26048 ft | 360 kts | 228° |
| 2026-05-05 19:58 | 42.85935 | 12.39621 | 26061 ft | 359 kts | 228° |
| 2026-05-05 19:58 | 42.84251 | 12.37176 | 26048 ft | 358 kts | 228° |
| 2026-05-05 19:58 | 42.82524 | 12.34672 | 26048 ft | 358 kts | 228° |
| 2026-05-05 19:58 | 42.80841 | 12.32241 | 26039 ft | 357 kts | 228° |
| 2026-05-05 19:59 | 42.79146 | 12.29793 | 25693 ft | 354 kts | 228° |
| 2026-05-05 19:59 | 42.77463 | 12.27353 | 25260 ft | 353 kts | 228° |
| 2026-05-05 19:59 | 42.75784 | 12.24920 | 24791 ft | 352 kts | 228° |
| 2026-05-05 19:59 | 42.74108 | 12.22492 | 24326 ft | 351 kts | 227° |
| 2026-05-05 20:00 | 42.72436 | 12.20074 | 23896 ft | 351 kts | 227° |
| 2026-05-05 20:00 | 42.70882 | 12.17531 | 23418 ft | 350 kts | 235° |
| 2026-05-05 20:00 | 42.69646 | 12.14697 | 22994 ft | 346 kts | 244° |
| 2026-05-05 20:00 | 42.68777 | 12.11706 | 22849 ft | 335 kts | 251° |
| 2026-05-05 20:01 | 42.68079 | 12.08719 | 22533 ft | 329 kts | 251° |
| 2026-05-05 20:01 | 42.67383 | 12.05774 | 22134 ft | 326 kts | 251° |
| 2026-05-05 20:01 | 42.66680 | 12.02825 | 21511 ft | 331 kts | 250° |
| 2026-05-05 20:01 | 42.65965 | 11.99841 | 20875 ft | 334 kts | 250° |
| 2026-05-05 20:02 | 42.65243 | 11.96821 | 20252 ft | 338 kts | 251° |
| 2026-05-05 20:02 | 42.64516 | 11.93776 | 19643 ft | 340 kts | 251° |
| 2026-05-05 20:02 | 42.63785 | 11.90713 | 19043 ft | 342 kts | 251° |
| 2026-05-05 20:02 | 42.63050 | 11.87632 | 18456 ft | 343 kts | 251° |
| 2026-05-05 20:03 | 42.62314 | 11.84544 | 17802 ft | 344 kts | 251° |
| 2026-05-05 20:03 | 42.61575 | 11.81448 | 17139 ft | 345 kts | 251° |
| 2026-05-05 20:03 | 42.61080 | 11.79400 | 16716 ft | 345 kts | 249° |
| 2026-05-05 20:03 | 42.59928 | 11.76567 | 16099 ft | 344 kts | 231° |
| 2026-05-05 20:04 | 42.58153 | 11.74409 | 15474 ft | 346 kts | 213° |
| 2026-05-05 20:04 | 42.55922 | 11.73183 | 14863 ft | 350 kts | 194° |
| 2026-05-05 20:04 | 42.53478 | 11.73086 | 14263 ft | 357 kts | 174° |
| 2026-05-05 20:04 | 42.51125 | 11.74187 | 13654 ft | 364 kts | 153° |
| 2026-05-05 20:05 | 42.49173 | 11.76390 | 12999 ft | 370 kts | 132° |
| 2026-05-05 20:05 | 42.47915 | 11.79439 | 12355 ft | 375 kts | 110° |
| 2026-05-05 20:05 | 42.47543 | 11.82940 | 11710 ft | 378 kts | 92° |
| 2026-05-05 20:05 | 42.47551 | 11.86488 | 11101 ft | 375 kts | 91° |
| 2026-05-05 20:06 | 42.47571 | 11.89939 | 10486 ft | 355 kts | 91° |
| 2026-05-05 20:06 | 42.47592 | 11.93187 | 9892 ft | 336 kts | 91° |
| 2026-05-05 20:06 | 42.47608 | 11.96275 | 9242 ft | 320 kts | 92° |
| 2026-05-05 20:06 | 42.47620 | 11.99228 | 8600 ft | 308 kts | 92° |
| 2026-05-05 20:07 | 42.47627 | 12.02075 | 7968 ft | 297 kts | 92° |
| 2026-05-05 20:07 | 42.47631 | 12.04833 | 7344 ft | 289 kts | 94° |
| 2026-05-05 20:07 | 42.47633 | 12.07516 | 6734 ft | 281 kts | 94° |
| 2026-05-05 20:07 | 42.47634 | 12.10084 | 6230 ft | 269 kts | 93° |
| 2026-05-05 20:08 | 42.47639 | 12.12528 | 6117 ft | 244 kts | 92° |
| 2026-05-05 20:08 | 42.47643 | 12.14774 | 6139 ft | 242 kts | 95° |
| 2026-05-05 20:08 | 42.47643 | 12.17063 | 6138 ft | 244 kts | 95° |
| 2026-05-05 20:08 | 42.47382 | 12.19323 | 6146 ft | 236 kts | 116° |
| 2026-05-05 20:09 | 42.46523 | 12.21115 | 6138 ft | 227 kts | 140° |
| 2026-05-05 20:09 | 42.45253 | 12.22198 | 6148 ft | 204 kts | 165° |
| 2026-05-05 20:09 | 42.43906 | 12.22482 | 6150 ft | 197 kts | 185° |
| 2026-05-05 20:09 | 42.42546 | 12.22324 | 6145 ft | 199 kts | 187° |
| 2026-05-05 20:10 | 42.41146 | 12.22163 | 6133 ft | 198 kts | 187° |
| 2026-05-05 20:10 | 42.39765 | 12.22005 | 6150 ft | 201 kts | 186° |
| 2026-05-05 20:10 | 42.38355 | 12.21845 | 5948 ft | 205 kts | 186° |
| 2026-05-05 20:10 | 42.36939 | 12.21686 | 5588 ft | 203 kts | 186° |
| 2026-05-05 20:11 | 42.35554 | 12.21532 | 5619 ft | 198 kts | 186° |
| 2026-05-05 20:11 | 42.34166 | 12.21376 | 5688 ft | 201 kts | 186° |
| 2026-05-05 20:11 | 42.32772 | 12.21218 | 5565 ft | 200 kts | 185° |
| 2026-05-05 20:11 | 42.31394 | 12.21062 | 5436 ft | 199 kts | 186° |
| 2026-05-05 20:12 | 42.30018 | 12.20907 | 5308 ft | 199 kts | 186° |
| 2026-05-05 20:12 | 42.28638 | 12.20750 | 5185 ft | 198 kts | 185° |
| 2026-05-05 20:12 | 42.27265 | 12.20595 | 5060 ft | 197 kts | 185° |
| 2026-05-05 20:12 | 42.25911 | 12.20444 | 4940 ft | 194 kts | 186° |
| 2026-05-05 20:13 | 42.24571 | 12.20293 | 4910 ft | 193 kts | 186° |
| 2026-05-05 20:13 | 42.23235 | 12.20145 | 4908 ft | 193 kts | 185° |
| 2026-05-05 20:13 | 42.21891 | 12.19996 | 4886 ft | 193 kts | 185° |
| 2026-05-05 20:13 | 42.20559 | 12.19847 | 4560 ft | 192 kts | 185° |
| 2026-05-05 20:14 | 42.19223 | 12.19697 | 4208 ft | 193 kts | 185° |
| 2026-05-05 20:14 | 42.17887 | 12.19547 | 4028 ft | 192 kts | 185° |
| 2026-05-05 20:14 | 42.16577 | 12.19401 | 4010 ft | 192 kts | 185° |
| 2026-05-05 20:14 | 42.15242 | 12.19254 | 4013 ft | 192 kts | 185° |
| 2026-05-05 20:15 | 42.13912 | 12.19102 | 4005 ft | 192 kts | 185° |
| 2026-05-05 20:15 | 42.12581 | 12.18946 | 4012 ft | 191 kts | 185° |
| 2026-05-05 20:15 | 42.11256 | 12.18800 | 4009 ft | 191 kts | 185° |
| 2026-05-05 20:15 | 42.09934 | 12.18659 | 4027 ft | 191 kts | 185° |
| 2026-05-05 20:16 | 42.08598 | 12.18507 | 4028 ft | 193 kts | 185° |
| 2026-05-05 20:16 | 42.07258 | 12.18349 | 4028 ft | 193 kts | 185° |
| 2026-05-05 20:16 | 42.05926 | 12.18201 | 4035 ft | 192 kts | 185° |
| 2026-05-05 20:16 | 42.04650 | 12.18060 | 4040 ft | 173 kts | 184° |
| 2026-05-05 20:17 | 42.03511 | 12.18266 | 3882 ft | 161 kts | 166° |
| 2026-05-05 20:17 | 42.02461 | 12.18671 | 3688 ft | 153 kts | 165° |
| 2026-05-05 20:17 | 42.01468 | 12.19073 | 3484 ft | 145 kts | 166° |
| 2026-05-05 20:17 | 42.00515 | 12.19468 | 3300 ft | 141 kts | 166° |
| 2026-05-05 20:18 | 41.99583 | 12.19857 | 3116 ft | 139 kts | 166° |
| 2026-05-05 20:18 | 41.98660 | 12.20244 | 2920 ft | 139 kts | 165° |
| 2026-05-05 20:18 | 41.97737 | 12.20631 | 2739 ft | 140 kts | 165° |
| 2026-05-05 20:18 | 41.96812 | 12.21020 | 2540 ft | 139 kts | 163° |
| 2026-05-05 20:19 | 41.95891 | 12.21407 | 2355 ft | 140 kts | 166° |
| 2026-05-05 20:19 | 41.94970 | 12.21794 | 2171 ft | 140 kts | 165° |
| 2026-05-05 20:19 | 41.94048 | 12.22182 | 1997 ft | 138 kts | 165° |
| 2026-05-05 20:19 | 41.93140 | 12.22564 | 1808 ft | 136 kts | 165° |
| 2026-05-05 20:20 | 41.92239 | 12.22942 | 1627 ft | 136 kts | 164° |
| 2026-05-05 20:20 | 41.91332 | 12.23323 | 1439 ft | 137 kts | 163° |
| 2026-05-05 20:20 | 41.90415 | 12.23708 | 1259 ft | 139 kts | 163° |
| 2026-05-05 20:20 | 41.89485 | 12.24098 | 1064 ft | 141 kts | 161° |
| 2026-05-05 20:21 | 41.88575 | 12.24480 | 886 ft | 133 kts | 161° |
| 2026-05-05 20:21 | 41.87708 | 12.24843 | 698 ft | 130 kts | 161° |
| 2026-05-05 20:21 | 41.86841 | 12.25207 | 527 ft | 132 kts | 161° |
| 2026-05-05 20:21 | 41.85969 | 12.25573 | 360 ft | 130 kts | 163° |
| 2026-05-05 20:22 | 41.85102 | 12.25935 | 154 ft | 129 kts | 161° |
| 2026-05-05 20:22 | 41.84249 | 12.26301 | 31 ft | 128 kts | 161° |
| 2026-05-05 20:22 | 41.83509 | 12.26612 | 14 ft | 90 kts | 162° |
| 2026-05-05 20:22 | 41.83054 | 12.26799 | 12 ft | 55 kts | 163° |
| 2026-05-05 20:23 | 41.82735 | 12.26933 | 15 ft | 44 kts | 162° |
| 2026-05-05 20:23 | 41.82463 | 12.27046 | 12 ft | 39 kts | 164° |
| 2026-05-05 20:23 | 41.82215 | 12.27128 | 10 ft | 35 kts | 172° |
| 2026-05-05 20:23 | 41.81990 | 12.27119 | 11 ft | 31 kts | 193° |
| 2026-05-05 20:24 | 41.81807 | 12.27063 | 11 ft | 24 kts | 193° |
| 2026-05-05 20:24 | 41.81644 | 12.27062 | 12 ft | 24 kts | 163° |
| 2026-05-05 20:24 | 41.81481 | 12.27130 | 12 ft | 25 kts | 162° |
| 2026-05-05 20:24 | 41.81314 | 12.27201 | 13 ft | 26 kts | 162° |
| 2026-05-05 20:25 | 41.81141 | 12.27274 | 12 ft | 26 kts | 162° |
| 2026-05-05 20:25 | 41.80966 | 12.27346 | 13 ft | 27 kts | 167° |
| 2026-05-05 20:25 | 41.80809 | 12.27330 | 13 ft | 18 kts | 189° |
| 2026-05-05 20:25 | 41.80686 | 12.27286 | 13 ft | 19 kts | 213° |
| 2026-05-05 20:26 | 41.80629 | 12.27128 | 15 ft | 20 kts | 249° |
| 2026-05-05 20:26 | 41.80580 | 12.26947 | 13 ft | 21 kts | 251° |
| 2026-05-05 20:26 | 41.80527 | 12.26757 | 14 ft | 22 kts | 250° |
| 2026-05-05 20:26 | 41.80472 | 12.26559 | 17 ft | 23 kts | 249° |
| 2026-05-05 20:27 | 41.80414 | 12.26386 | 15 ft | 19 kts | 222° |
| 2026-05-05 20:27 | 41.80288 | 12.26402 | 14 ft | 20 kts | 158° |
| 2026-05-05 20:27 | 41.80157 | 12.26370 | 14 ft | 20 kts | 205° |
| 2026-05-05 20:27 | 41.80022 | 12.26287 | 14 ft | 22 kts | 205° |
| 2026-05-05 20:28 | 41.79877 | 12.26198 | 16 ft | 24 kts | 205° |
| 2026-05-05 20:28 | 41.79765 | 12.26139 | 14 ft | 15 kts | 180° |
| 2026-05-05 20:28 | 41.79658 | 12.26125 | 14 ft | 16 kts | 206° |
| 2026-05-05 20:28 | 41.79597 | 12.26084 | 15 ft | 6 kts | 205° |
| 2026-05-05 20:29 | 41.79571 | 12.26107 | 14 ft | 5 kts | 124° |
| 2026-05-05 20:29 | 41.79563 | 12.26131 | 14 ft | 1 kts | 113° |
| 2026-05-05 20:29 | 41.79557 | 12.26148 | 14 ft | 1 kts | 115° |
| 2026-05-05 20:29 | 41.79554 | 12.26155 | 14 ft | 0 kts | 115° |